Terminal Aerodrome Forecast
Issued by NWS

Home | Current Version | Previous Version | Text Only | Print | Product List | Glossary On
Versions: 1 2 3 4 5 6 7 8 9 10 11 12 13 14
478
FTUS46 KMFR 230542
TAFRBG
TAF
KRBG 230542Z 2306/2406 36003KT P6SM SKC
     FM232000 01012G20KT P6SM SKC
     FM240300 36006KT P6SM SKC=

USA.gov is the U.S. government's official web portal to all federal, state and local government web resources and services.